sensor_id;sensor_type;location;lat;lon;timestamp;temperature;humidity
59075;DHT22;44860;53.020;6.738;2022-07-29T00:01:21;16.00;99.90
59075;DHT22;44860;53.020;6.738;2022-07-29T00:03:47;16.00;99.90
59075;DHT22;44860;53.020;6.738;2022-07-29T00:06:14;15.90;99.90
59075;DHT22;44860;53.020;6.738;2022-07-29T00:08:40;15.90;99.90
59075;DHT22;44860;53.020;6.738;2022-07-29T00:11:05;15.90;99.90
59075;DHT22;44860;53.020;6.738;2022-07-29T00:13:31;15.90;99.90
59075;DHT22;44860;53.020;6.738;2022-07-29T00:15:57;15.90;99.90
59075;DHT22;44860;53.020;6.738;2022-07-29T00:18:22;15.90;99.90
59075;DHT22;44860;53.020;6.738;2022-07-29T00:20:48;15.90;99.90
59075;DHT22;44860;53.020;6.738;2022-07-29T00:23:13;15.90;99.90
59075;DHT22;44860;53.020;6.738;2022-07-29T00:25:39;15.90;99.90
59075;DHT22;44860;53.020;6.738;2022-07-29T00:28:05;15.90;99.90
59075;DHT22;44860;53.020;6.738;2022-07-29T00:30:31;15.90;99.90
59075;DHT22;44860;53.020;6.738;2022-07-29T00:32:56;15.90;99.90
59075;DHT22;44860;53.020;6.738;2022-07-29T00:35:22;15.90;99.90
59075;DHT22;44860;53.020;6.738;2022-07-29T00:38:06;15.90;99.90
59075;DHT22;44860;53.020;6.738;2022-07-29T00:40:32;15.80;99.90
59075;DHT22;44860;53.020;6.738;2022-07-29T00:42:57;15.80;99.90
59075;DHT22;44860;53.020;6.738;2022-07-29T00:45:23;15.80;99.90
59075;DHT22;44860;53.020;6.738;2022-07-29T00:47:49;15.90;99.90
59075;DHT22;44860;53.020;6.738;2022-07-29T00:50:14;15.80;99.90
59075;DHT22;44860;53.020;6.738;2022-07-29T00:52:42;15.80;99.90
59075;DHT22;44860;53.020;6.738;2022-07-29T00:55:12;15.80;99.90
59075;DHT22;44860;53.020;6.738;2022-07-29T00:57:38;15.80;99.90
59075;DHT22;44860;53.020;6.738;2022-07-29T01:00:09;15.80;99.90
59075;DHT22;44860;53.020;6.738;2022-07-29T01:02:35;15.80;99.90
59075;DHT22;44860;53.020;6.738;2022-07-29T01:05:02;15.70;99.90
59075;DHT22;44860;53.020;6.738;2022-07-29T01:07:30;15.70;99.90
59075;DHT22;44860;53.020;6.738;2022-07-29T01:09:58;15.70;99.90
59075;DHT22;44860;53.020;6.738;2022-07-29T01:12:28;15.70;99.90
59075;DHT22;44860;53.020;6.738;2022-07-29T01:14:59;15.70;99.90
59075;DHT22;44860;53.020;6.738;2022-07-29T01:26:40;15.70;99.90
59075;DHT22;44860;53.020;6.738;2022-07-29T01:29:30;15.70;99.90
59075;DHT22;44860;53.020;6.738;2022-07-29T01:32:21;15.70;99.90
59075;DHT22;44860;53.020;6.738;2022-07-29T01:34:57;15.60;99.90
59075;DHT22;44860;53.020;6.738;2022-07-29T01:40:05;15.60;99.90
59075;DHT22;44860;53.020;6.738;2022-07-29T01:42:48;15.60;99.90
59075;DHT22;44860;53.020;6.738;2022-07-29T01:45:19;15.60;99.90
59075;DHT22;44860;53.020;6.738;2022-07-29T01:47:56;15.70;99.90
59075;DHT22;44860;53.020;6.738;2022-07-29T01:50:28;15.60;99.90
59075;DHT22;44860;53.020;6.738;2022-07-29T01:53:00;15.60;99.90
59075;DHT22;44860;53.020;6.738;2022-07-29T01:55:32;15.60;99.90
59075;DHT22;44860;53.020;6.738;2022-07-29T01:58:00;15.60;99.90
59075;DHT22;44860;53.020;6.738;2022-07-29T02:00:30;15.60;99.90
59075;DHT22;44860;53.020;6.738;2022-07-29T02:03:03;15.60;99.90
59075;DHT22;44860;53.020;6.738;2022-07-29T02:05:31;15.60;99.90
59075;DHT22;44860;53.020;6.738;2022-07-29T02:07:58;15.60;99.90
59075;DHT22;44860;53.020;6.738;2022-07-29T02:10:27;15.60;99.90
59075;DHT22;44860;53.020;6.738;2022-07-29T02:12:55;15.60;99.90
59075;DHT22;44860;53.020;6.738;2022-07-29T02:15:27;15.60;99.90
59075;DHT22;44860;53.020;6.738;2022-07-29T02:18:02;15.60;99.90
59075;DHT22;44860;53.020;6.738;2022-07-29T02:20:30;15.60;99.90
59075;DHT22;44860;53.020;6.738;2022-07-29T02:22:58;15.60;99.90
59075;DHT22;44860;53.020;6.738;2022-07-29T02:25:26;15.60;99.90
59075;DHT22;44860;53.020;6.738;2022-07-29T02:27:53;15.60;99.90
59075;DHT22;44860;53.020;6.738;2022-07-29T02:30:21;15.60;99.90
59075;DHT22;44860;53.020;6.738;2022-07-29T02:32:49;15.60;99.90
59075;DHT22;44860;53.020;6.738;2022-07-29T02:35:16;15.60;99.90
59075;DHT22;44860;53.020;6.738;2022-07-29T02:37:43;15.60;99.90
59075;DHT22;44860;53.020;6.738;2022-07-29T02:40:11;15.60;99.90
59075;DHT22;44860;53.020;6.738;2022-07-29T02:42:41;15.60;99.90
59075;DHT22;44860;53.020;6.738;2022-07-29T02:45:07;15.60;99.90
59075;DHT22;44860;53.020;6.738;2022-07-29T02:47:40;15.60;99.90
59075;DHT22;44860;53.020;6.738;2022-07-29T02:50:17;15.60;99.90
59075;DHT22;44860;53.020;6.738;2022-07-29T02:52:53;15.60;99.90
59075;DHT22;44860;53.020;6.738;2022-07-29T02:58:37;15.50;99.90
59075;DHT22;44860;53.020;6.738;2022-07-29T03:01:09;15.50;99.90
59075;DHT22;44860;53.020;6.738;2022-07-29T03:03:37;15.50;99.90
59075;DHT22;44860;53.020;6.738;2022-07-29T03:06:05;15.50;99.90
59075;DHT22;44860;53.020;6.738;2022-07-29T03:08:32;15.50;99.90
59075;DHT22;44860;53.020;6.738;2022-07-29T03:10:59;15.60;99.90
59075;DHT22;44860;53.020;6.738;2022-07-29T03:13:27;15.50;99.90
59075;DHT22;44860;53.020;6.738;2022-07-29T03:15:53;15.60;99.90
59075;DHT22;44860;53.020;6.738;2022-07-29T03:18:20;15.50;99.90
59075;DHT22;44860;53.020;6.738;2022-07-29T03:20:46;15.50;99.90
59075;DHT22;44860;53.020;6.738;2022-07-29T03:23:12;15.50;99.90
59075;DHT22;44860;53.020;6.738;2022-07-29T03:25:43;15.50;99.90
59075;DHT22;44860;53.020;6.738;2022-07-29T03:28:09;15.50;99.90
59075;DHT22;44860;53.020;6.738;2022-07-29T03:30:34;15.50;99.90
59075;DHT22;44860;53.020;6.738;2022-07-29T03:33:00;15.50;99.90
59075;DHT22;44860;53.020;6.738;2022-07-29T03:35:26;15.50;99.90
59075;DHT22;44860;53.020;6.738;2022-07-29T03:37:52;15.50;99.90
59075;DHT22;44860;53.020;6.738;2022-07-29T03:40:24;15.50;99.90
59075;DHT22;44860;53.020;6.738;2022-07-29T03:42:52;15.50;99.90
59075;DHT22;44860;53.020;6.738;2022-07-29T03:45:19;15.40;99.90
59075;DHT22;44860;53.020;6.738;2022-07-29T03:47:50;15.50;99.90
59075;DHT22;44860;53.020;6.738;2022-07-29T03:50:17;15.50;99.90
59075;DHT22;44860;53.020;6.738;2022-07-29T03:52:45;15.40;99.90
59075;DHT22;44860;53.020;6.738;2022-07-29T03:55:11;15.50;99.90
59075;DHT22;44860;53.020;6.738;2022-07-29T03:57:37;15.40;99.90
59075;DHT22;44860;53.020;6.738;2022-07-29T04:00:05;15.40;99.90
59075;DHT22;44860;53.020;6.738;2022-07-29T04:02:32;15.50;99.90
59075;DHT22;44860;53.020;6.738;2022-07-29T04:04:58;15.50;99.90
59075;DHT22;44860;53.020;6.738;2022-07-29T04:07:24;15.40;99.90
59075;DHT22;44860;53.020;6.738;2022-07-29T04:09:49;15.40;99.90
59075;DHT22;44860;53.020;6.738;2022-07-29T04:12:15;15.40;99.90
59075;DHT22;44860;53.020;6.738;2022-07-29T04:14:41;15.40;99.90
59075;DHT22;44860;53.020;6.738;2022-07-29T04:17:07;15.40;99.90
59075;DHT22;44860;53.020;6.738;2022-07-29T04:19:33;15.40;99.90
59075;DHT22;44860;53.020;6.738;2022-07-29T04:21:59;15.40;99.90
59075;DHT22;44860;53.020;6.738;2022-07-29T04:24:26;15.40;99.90
59075;DHT22;44860;53.020;6.738;2022-07-29T04:26:51;15.40;99.90
59075;DHT22;44860;53.020;6.738;2022-07-29T04:29:17;15.40;99.90
59075;DHT22;44860;53.020;6.738;2022-07-29T04:31:43;15.40;99.90
59075;DHT22;44860;53.020;6.738;2022-07-29T04:34:10;15.30;99.90
59075;DHT22;44860;53.020;6.738;2022-07-29T04:36:36;15.30;99.90
59075;DHT22;44860;53.020;6.738;2022-07-29T04:39:02;15.30;99.90
59075;DHT22;44860;53.020;6.738;2022-07-29T04:41:28;15.30;99.90
59075;DHT22;44860;53.020;6.738;2022-07-29T04:43:54;15.30;99.90
59075;DHT22;44860;53.020;6.738;2022-07-29T04:46:19;15.30;99.90
59075;DHT22;44860;53.020;6.738;2022-07-29T04:48:46;15.20;99.90
59075;DHT22;44860;53.020;6.738;2022-07-29T04:51:12;15.20;99.90
59075;DHT22;44860;53.020;6.738;2022-07-29T04:53:38;15.30;99.90
59075;DHT22;44860;53.020;6.738;2022-07-29T04:56:04;15.30;99.90
59075;DHT22;44860;53.020;6.738;2022-07-29T04:58:29;15.30;99.90
59075;DHT22;44860;53.020;6.738;2022-07-29T05:00:55;15.20;99.90
59075;DHT22;44860;53.020;6.738;2022-07-29T05:03:21;15.20;99.90
59075;DHT22;44860;53.020;6.738;2022-07-29T05:05:46;15.20;99.90
59075;DHT22;44860;53.020;6.738;2022-07-29T05:08:12;15.20;99.90
59075;DHT22;44860;53.020;6.738;2022-07-29T05:10:38;15.20;99.90
59075;DHT22;44860;53.020;6.738;2022-07-29T05:13:05;15.20;99.90
59075;DHT22;44860;53.020;6.738;2022-07-29T05:15:32;15.20;99.90
59075;DHT22;44860;53.020;6.738;2022-07-29T05:17:58;15.30;99.90
59075;DHT22;44860;53.020;6.738;2022-07-29T05:20:24;15.30;99.90
59075;DHT22;44860;53.020;6.738;2022-07-29T05:22:54;15.30;99.90
59075;DHT22;44860;53.020;6.738;2022-07-29T05:25:20;15.30;99.90
59075;DHT22;44860;53.020;6.738;2022-07-29T05:27:45;15.30;99.90
59075;DHT22;44860;53.020;6.738;2022-07-29T05:30:11;15.30;99.90
59075;DHT22;44860;53.020;6.738;2022-07-29T05:32:37;15.30;99.90
59075;DHT22;44860;53.020;6.738;2022-07-29T05:35:03;15.30;99.90
59075;DHT22;44860;53.020;6.738;2022-07-29T05:37:28;15.30;99.90
59075;DHT22;44860;53.020;6.738;2022-07-29T05:39:54;15.40;99.90
59075;DHT22;44860;53.020;6.738;2022-07-29T05:42:20;15.40;99.90
59075;DHT22;44860;53.020;6.738;2022-07-29T05:44:45;15.40;99.90
59075;DHT22;44860;53.020;6.738;2022-07-29T05:47:12;15.40;99.90
59075;DHT22;44860;53.020;6.738;2022-07-29T05:49:38;15.40;99.90
59075;DHT22;44860;53.020;6.738;2022-07-29T05:52:04;15.50;99.90
59075;DHT22;44860;53.020;6.738;2022-07-29T05:54:30;15.40;99.90
59075;DHT22;44860;53.020;6.738;2022-07-29T05:56:56;15.50;99.90
59075;DHT22;44860;53.020;6.738;2022-07-29T05:59:21;15.50;99.90
59075;DHT22;44860;53.020;6.738;2022-07-29T06:01:47;15.50;99.90
59075;DHT22;44860;53.020;6.738;2022-07-29T06:04:13;15.50;99.90
59075;DHT22;44860;53.020;6.738;2022-07-29T06:06:38;15.50;99.90
59075;DHT22;44860;53.020;6.738;2022-07-29T06:09:04;15.60;99.90
59075;DHT22;44860;53.020;6.738;2022-07-29T06:11:30;15.50;99.90
59075;DHT22;44860;53.020;6.738;2022-07-29T06:13:55;15.60;99.90
59075;DHT22;44860;53.020;6.738;2022-07-29T06:16:21;15.60;99.90
59075;DHT22;44860;53.020;6.738;2022-07-29T06:18:47;15.60;99.90
59075;DHT22;44860;53.020;6.738;2022-07-29T06:21:12;15.60;99.90
59075;DHT22;44860;53.020;6.738;2022-07-29T06:23:38;15.70;99.90
59075;DHT22;44860;53.020;6.738;2022-07-29T06:26:05;15.70;99.90
59075;DHT22;44860;53.020;6.738;2022-07-29T06:28:32;15.70;99.90
59075;DHT22;44860;53.020;6.738;2022-07-29T06:30:58;15.80;99.90
59075;DHT22;44860;53.020;6.738;2022-07-29T06:33:24;15.80;99.90
59075;DHT22;44860;53.020;6.738;2022-07-29T06:35:49;15.80;99.90
59075;DHT22;44860;53.020;6.738;2022-07-29T06:38:16;15.90;99.90
59075;DHT22;44860;53.020;6.738;2022-07-29T06:40:45;15.90;99.90
59075;DHT22;44860;53.020;6.738;2022-07-29T06:43:36;15.90;99.90
59075;DHT22;44860;53.020;6.738;2022-07-29T06:46:05;15.90;99.90
59075;DHT22;44860;53.020;6.738;2022-07-29T06:48:32;15.90;99.90
59075;DHT22;44860;53.020;6.738;2022-07-29T06:50:59;16.00;99.90
59075;DHT22;44860;53.020;6.738;2022-07-29T06:53:25;16.00;99.90
59075;DHT22;44860;53.020;6.738;2022-07-29T06:55:51;16.00;99.90
59075;DHT22;44860;53.020;6.738;2022-07-29T06:58:17;16.00;99.90
59075;DHT22;44860;53.020;6.738;2022-07-29T07:00:48;16.10;99.90
59075;DHT22;44860;53.020;6.738;2022-07-29T07:03:14;16.10;99.90
59075;DHT22;44860;53.020;6.738;2022-07-29T07:05:40;16.10;99.90
59075;DHT22;44860;53.020;6.738;2022-07-29T07:08:06;16.10;99.90
59075;DHT22;44860;53.020;6.738;2022-07-29T07:10:32;16.20;99.90
59075;DHT22;44860;53.020;6.738;2022-07-29T07:12:59;16.20;99.90
59075;DHT22;44860;53.020;6.738;2022-07-29T07:15:25;16.20;99.90
59075;DHT22;44860;53.020;6.738;2022-07-29T07:17:50;16.20;99.90
59075;DHT22;44860;53.020;6.738;2022-07-29T07:20:17;16.30;99.90
59075;DHT22;44860;53.020;6.738;2022-07-29T07:22:43;16.30;99.90
59075;DHT22;44860;53.020;6.738;2022-07-29T07:25:09;16.40;99.90
59075;DHT22;44860;53.020;6.738;2022-07-29T07:27:35;16.30;99.90
59075;DHT22;44860;53.020;6.738;2022-07-29T07:30:03;16.40;99.90
59075;DHT22;44860;53.020;6.738;2022-07-29T07:32:31;16.40;99.90
59075;DHT22;44860;53.020;6.738;2022-07-29T07:34:56;16.50;99.90
59075;DHT22;44860;53.020;6.738;2022-07-29T07:37:23;16.50;99.90
59075;DHT22;44860;53.020;6.738;2022-07-29T07:39:50;16.50;99.90
59075;DHT22;44860;53.020;6.738;2022-07-29T07:42:17;16.50;99.90
59075;DHT22;44860;53.020;6.738;2022-07-29T07:44:42;16.60;99.90
59075;DHT22;44860;53.020;6.738;2022-07-29T07:47:08;16.60;99.90
59075;DHT22;44860;53.020;6.738;2022-07-29T07:49:34;16.70;99.90
59075;DHT22;44860;53.020;6.738;2022-07-29T07:51:59;16.70;99.90
59075;DHT22;44860;53.020;6.738;2022-07-29T07:54:25;16.70;99.90
59075;DHT22;44860;53.020;6.738;2022-07-29T07:56:51;16.80;99.90
59075;DHT22;44860;53.020;6.738;2022-07-29T07:59:17;16.80;99.90
59075;DHT22;44860;53.020;6.738;2022-07-29T08:01:42;16.80;99.90
59075;DHT22;44860;53.020;6.738;2022-07-29T08:04:08;16.90;99.90
59075;DHT22;44860;53.020;6.738;2022-07-29T08:06:34;16.90;99.90
59075;DHT22;44860;53.020;6.738;2022-07-29T08:09:02;16.90;99.90
59075;DHT22;44860;53.020;6.738;2022-07-29T08:11:28;17.00;99.90
59075;DHT22;44860;53.020;6.738;2022-07-29T08:13:54;17.00;99.90
59075;DHT22;44860;53.020;6.738;2022-07-29T08:16:20;17.10;99.90
59075;DHT22;44860;53.020;6.738;2022-07-29T08:18:46;17.10;99.90
59075;DHT22;44860;53.020;6.738;2022-07-29T08:21:12;17.10;99.90
59075;DHT22;44860;53.020;6.738;2022-07-29T08:23:38;17.20;99.90
59075;DHT22;44860;53.020;6.738;2022-07-29T08:26:06;17.20;99.90
59075;DHT22;44860;53.020;6.738;2022-07-29T08:28:36;17.20;99.90
59075;DHT22;44860;53.020;6.738;2022-07-29T08:31:02;17.30;99.90
59075;DHT22;44860;53.020;6.738;2022-07-29T08:33:28;17.30;99.90
59075;DHT22;44860;53.020;6.738;2022-07-29T08:35:53;17.30;99.90
59075;DHT22;44860;53.020;6.738;2022-07-29T08:38:19;17.40;99.90
59075;DHT22;44860;53.020;6.738;2022-07-29T08:40:45;17.30;99.90
59075;DHT22;44860;53.020;6.738;2022-07-29T08:43:11;17.40;99.90
59075;DHT22;44860;53.020;6.738;2022-07-29T08:48:08;17.50;99.90
59075;DHT22;44860;53.020;6.738;2022-07-29T08:50:35;17.50;99.90
59075;DHT22;44860;53.020;6.738;2022-07-29T08:53:02;17.60;99.90
59075;DHT22;44860;53.020;6.738;2022-07-29T08:55:28;17.60;99.90
59075;DHT22;44860;53.020;6.738;2022-07-29T08:57:54;17.60;99.90
59075;DHT22;44860;53.020;6.738;2022-07-29T09:00:21;17.60;99.90
59075;DHT22;44860;53.020;6.738;2022-07-29T09:02:51;17.70;99.90
59075;DHT22;44860;53.020;6.738;2022-07-29T09:05:21;17.70;99.90
59075;DHT22;44860;53.020;6.738;2022-07-29T09:07:47;17.70;99.90
59075;DHT22;44860;53.020;6.738;2022-07-29T09:10:13;17.70;99.90
59075;DHT22;44860;53.020;6.738;2022-07-29T09:12:39;17.80;99.80
59075;DHT22;44860;53.020;6.738;2022-07-29T09:15:05;17.70;99.70
59075;DHT22;44860;53.020;6.738;2022-07-29T09:17:47;17.70;99.70
59075;DHT22;44860;53.020;6.738;2022-07-29T09:20:19;17.80;99.90
59075;DHT22;44860;53.020;6.738;2022-07-29T09:22:45;17.80;99.80
59075;DHT22;44860;53.020;6.738;2022-07-29T09:25:38;17.90;99.90
59075;DHT22;44860;53.020;6.738;2022-07-29T09:28:11;18.00;99.80
59075;DHT22;44860;53.020;6.738;2022-07-29T09:30:53;18.00;99.10
59075;DHT22;44860;53.020;6.738;2022-07-29T09:33:20;18.00;98.90
59075;DHT22;44860;53.020;6.738;2022-07-29T09:35:46;18.10;98.70
59075;DHT22;44860;53.020;6.738;2022-07-29T09:38:12;18.10;98.70
59075;DHT22;44860;53.020;6.738;2022-07-29T09:40:38;18.20;99.10
59075;DHT22;44860;53.020;6.738;2022-07-29T09:43:12;18.20;98.10
59075;DHT22;44860;53.020;6.738;2022-07-29T09:45:38;18.20;97.90
59075;DHT22;44860;53.020;6.738;2022-07-29T09:48:15;18.20;97.60
59075;DHT22;44860;53.020;6.738;2022-07-29T09:50:44;18.20;98.40
59075;DHT22;44860;53.020;6.738;2022-07-29T09:53:10;18.20;98.60
59075;DHT22;44860;53.020;6.738;2022-07-29T09:55:49;18.20;98.70
59075;DHT22;44860;53.020;6.738;2022-07-29T09:58:20;18.30;98.20
59075;DHT22;44860;53.020;6.738;2022-07-29T10:00:48;18.30;98.40
59075;DHT22;44860;53.020;6.738;2022-07-29T10:03:15;18.30;98.70
59075;DHT22;44860;53.020;6.738;2022-07-29T10:05:42;18.30;98.40
59075;DHT22;44860;53.020;6.738;2022-07-29T10:08:09;18.30;97.80
59075;DHT22;44860;53.020;6.738;2022-07-29T10:10:41;18.30;98.90
59075;DHT22;44860;53.020;6.738;2022-07-29T10:13:10;18.30;98.30
59075;DHT22;44860;53.020;6.738;2022-07-29T10:15:41;18.30;97.80
59075;DHT22;44860;53.020;6.738;2022-07-29T10:18:09;18.40;98.30
59075;DHT22;44860;53.020;6.738;2022-07-29T10:20:36;18.40;98.10
59075;DHT22;44860;53.020;6.738;2022-07-29T10:23:02;18.40;98.00
59075;DHT22;44860;53.020;6.738;2022-07-29T10:25:28;18.40;98.40
59075;DHT22;44860;53.020;6.738;2022-07-29T10:27:54;18.50;98.30
59075;DHT22;44860;53.020;6.738;2022-07-29T10:30:21;18.50;98.50
59075;DHT22;44860;53.020;6.738;2022-07-29T10:35:42;18.60;98.30
59075;DHT22;44860;53.020;6.738;2022-07-29T10:44:01;18.80;97.20
59075;DHT22;44860;53.020;6.738;2022-07-29T10:46:27;18.80;98.50
59075;DHT22;44860;53.020;6.738;2022-07-29T10:49:11;18.90;97.80
59075;DHT22;44860;53.020;6.738;2022-07-29T10:52:05;18.90;96.80
59075;DHT22;44860;53.020;6.738;2022-07-29T10:59:50;19.10;96.50
59075;DHT22;44860;53.020;6.738;2022-07-29T11:07:37;19.30;96.10
59075;DHT22;44860;53.020;6.738;2022-07-29T11:15:11;19.40;95.90
59075;DHT22;44860;53.020;6.738;2022-07-29T11:23:32;19.60;96.70
59075;DHT22;44860;53.020;6.738;2022-07-29T11:26:19;19.70;97.30
59075;DHT22;44860;53.020;6.738;2022-07-29T11:29:04;19.70;97.00
59075;DHT22;44860;53.020;6.738;2022-07-29T11:31:42;19.80;96.70
59075;DHT22;44860;53.020;6.738;2022-07-29T11:34:28;19.80;95.80
59075;DHT22;44860;53.020;6.738;2022-07-29T11:40:08;19.90;95.70
59075;DHT22;44860;53.020;6.738;2022-07-29T11:47:31;20.00;94.20
59075;DHT22;44860;53.020;6.738;2022-07-29T11:49:58;20.00;95.00
59075;DHT22;44860;53.020;6.738;2022-07-29T11:52:31;20.10;94.20
59075;DHT22;44860;53.020;6.738;2022-07-29T11:54:57;20.20;94.60
59075;DHT22;44860;53.020;6.738;2022-07-29T11:57:28;20.20;93.80
59075;DHT22;44860;53.020;6.738;2022-07-29T11:59:55;20.30;94.10
59075;DHT22;44860;53.020;6.738;2022-07-29T12:02:23;20.40;92.60
59075;DHT22;44860;53.020;6.738;2022-07-29T12:04:53;20.40;91.70
59075;DHT22;44860;53.020;6.738;2022-07-29T12:07:32;20.50;93.20
59075;DHT22;44860;53.020;6.738;2022-07-29T12:09:59;20.60;92.50
59075;DHT22;44860;53.020;6.738;2022-07-29T12:12:25;20.60;93.00
59075;DHT22;44860;53.020;6.738;2022-07-29T12:14:51;20.60;92.10
59075;DHT22;44860;53.020;6.738;2022-07-29T12:17:29;20.70;92.20
59075;DHT22;44860;53.020;6.738;2022-07-29T12:19:55;20.70;91.70
59075;DHT22;44860;53.020;6.738;2022-07-29T12:22:35;20.70;91.70
59075;DHT22;44860;53.020;6.738;2022-07-29T12:25:13;20.80;90.80
59075;DHT22;44860;53.020;6.738;2022-07-29T12:27:41;20.80;91.80
59075;DHT22;44860;53.020;6.738;2022-07-29T12:30:17;20.90;92.20
59075;DHT22;44860;53.020;6.738;2022-07-29T12:32:46;20.90;90.20
59075;DHT22;44860;53.020;6.738;2022-07-29T12:37:40;21.00;90.30
59075;DHT22;44860;53.020;6.738;2022-07-29T12:40:08;21.00;90.70
59075;DHT22;44860;53.020;6.738;2022-07-29T12:42:37;21.10;89.70
59075;DHT22;44860;53.020;6.738;2022-07-29T12:45:03;21.20;90.00
59075;DHT22;44860;53.020;6.738;2022-07-29T12:47:29;21.20;89.40
59075;DHT22;44860;53.020;6.738;2022-07-29T12:50:13;21.20;90.80
59075;DHT22;44860;53.020;6.738;2022-07-29T12:52:44;21.30;89.90
59075;DHT22;44860;53.020;6.738;2022-07-29T12:55:10;21.40;89.00
59075;DHT22;44860;53.020;6.738;2022-07-29T12:57:47;21.50;86.50
59075;DHT22;44860;53.020;6.738;2022-07-29T13:00:14;21.50;90.10
59075;DHT22;44860;53.020;6.738;2022-07-29T13:02:40;21.70;87.70
59075;DHT22;44860;53.020;6.738;2022-07-29T13:05:08;21.70;86.10
59075;DHT22;44860;53.020;6.738;2022-07-29T13:07:35;21.80;87.80
59075;DHT22;44860;53.020;6.738;2022-07-29T13:10:17;21.90;84.60
59075;DHT22;44860;53.020;6.738;2022-07-29T13:15:28;22.20;82.70
59075;DHT22;44860;53.020;6.738;2022-07-29T13:17:53;22.30;81.90
59075;DHT22;44860;53.020;6.738;2022-07-29T13:20:24;22.40;79.70
59075;DHT22;44860;53.020;6.738;2022-07-29T13:22:50;22.50;78.10
59075;DHT22;44860;53.020;6.738;2022-07-29T13:25:27;22.50;80.10
59075;DHT22;44860;53.020;6.738;2022-07-29T13:27:53;22.60;77.00
59075;DHT22;44860;53.020;6.738;2022-07-29T13:30:20;22.60;79.90
59075;DHT22;44860;53.020;6.738;2022-07-29T13:32:46;22.70;79.90
59075;DHT22;44860;53.020;6.738;2022-07-29T13:35:12;22.80;74.00
59075;DHT22;44860;53.020;6.738;2022-07-29T13:37:39;22.80;71.00
59075;DHT22;44860;53.020;6.738;2022-07-29T13:40:06;22.80;70.80
59075;DHT22;44860;53.020;6.738;2022-07-29T13:42:32;22.90;68.60
59075;DHT22;44860;53.020;6.738;2022-07-29T13:44:59;22.90;68.60
59075;DHT22;44860;53.020;6.738;2022-07-29T13:47:25;23.00;68.40
59075;DHT22;44860;53.020;6.738;2022-07-29T13:49:51;23.10;69.70
59075;DHT22;44860;53.020;6.738;2022-07-29T13:52:18;23.20;67.40
59075;DHT22;44860;53.020;6.738;2022-07-29T13:54:44;23.20;67.70
59075;DHT22;44860;53.020;6.738;2022-07-29T13:57:10;23.30;67.60
59075;DHT22;44860;53.020;6.738;2022-07-29T13:59:36;23.30;69.70
59075;DHT22;44860;53.020;6.738;2022-07-29T14:02:02;23.40;65.40
59075;DHT22;44860;53.020;6.738;2022-07-29T14:04:28;23.40;61.90
59075;DHT22;44860;53.020;6.738;2022-07-29T14:06:54;23.50;64.50
59075;DHT22;44860;53.020;6.738;2022-07-29T14:09:22;23.50;61.80
59075;DHT22;44860;53.020;6.738;2022-07-29T14:11:47;23.60;60.90
59075;DHT22;44860;53.020;6.738;2022-07-29T14:14:15;23.60;61.90
59075;DHT22;44860;53.020;6.738;2022-07-29T14:16:41;23.70;62.20
59075;DHT22;44860;53.020;6.738;2022-07-29T14:19:06;23.70;58.60
59075;DHT22;44860;53.020;6.738;2022-07-29T14:21:32;23.80;56.10
59075;DHT22;44860;53.020;6.738;2022-07-29T14:23:58;23.80;57.10
59075;DHT22;44860;53.020;6.738;2022-07-29T14:26:24;23.80;56.30
59075;DHT22;44860;53.020;6.738;2022-07-29T14:28:49;23.80;55.00
59075;DHT22;44860;53.020;6.738;2022-07-29T14:31:15;23.80;55.30
59075;DHT22;44860;53.020;6.738;2022-07-29T14:33:41;23.90;56.70
59075;DHT22;44860;53.020;6.738;2022-07-29T14:36:10;23.90;56.90
59075;DHT22;44860;53.020;6.738;2022-07-29T14:38:36;23.90;56.90
59075;DHT22;44860;53.020;6.738;2022-07-29T14:41:03;24.10;55.70
59075;DHT22;44860;53.020;6.738;2022-07-29T14:43:29;24.20;54.80
59075;DHT22;44860;53.020;6.738;2022-07-29T14:45:54;24.40;53.90
59075;DHT22;44860;53.020;6.738;2022-07-29T14:48:20;24.50;55.40
59075;DHT22;44860;53.020;6.738;2022-07-29T14:50:46;24.70;52.90
59075;DHT22;44860;53.020;6.738;2022-07-29T14:53:11;24.80;53.30
59075;DHT22;44860;53.020;6.738;2022-07-29T14:55:38;24.90;54.20
59075;DHT22;44860;53.020;6.738;2022-07-29T14:58:04;25.00;53.00
59075;DHT22;44860;53.020;6.738;2022-07-29T15:00:30;25.10;52.70
59075;DHT22;44860;53.020;6.738;2022-07-29T15:02:58;25.20;51.90
59075;DHT22;44860;53.020;6.738;2022-07-29T15:05:25;25.30;51.10
59075;DHT22;44860;53.020;6.738;2022-07-29T15:07:53;25.40;50.30
59075;DHT22;44860;53.020;6.738;2022-07-29T15:10:19;25.40;48.30
59075;DHT22;44860;53.020;6.738;2022-07-29T15:12:44;25.50;46.70
59075;DHT22;44860;53.020;6.738;2022-07-29T15:15:15;25.50;47.10
59075;DHT22;44860;53.020;6.738;2022-07-29T15:17:41;25.50;45.90
59075;DHT22;44860;53.020;6.738;2022-07-29T15:20:08;25.60;46.10
59075;DHT22;44860;53.020;6.738;2022-07-29T15:22:33;25.60;46.60
59075;DHT22;44860;53.020;6.738;2022-07-29T15:24:59;25.60;46.50
59075;DHT22;44860;53.020;6.738;2022-07-29T15:27:25;25.70;46.30
59075;DHT22;44860;53.020;6.738;2022-07-29T15:29:50;25.70;45.10
59075;DHT22;44860;53.020;6.738;2022-07-29T15:32:18;25.70;43.50
59075;DHT22;44860;53.020;6.738;2022-07-29T15:34:44;25.70;43.10
59075;DHT22;44860;53.020;6.738;2022-07-29T15:37:09;25.70;42.30
59075;DHT22;44860;53.020;6.738;2022-07-29T15:39:36;25.70;42.40
59075;DHT22;44860;53.020;6.738;2022-07-29T15:42:02;25.70;41.80
59075;DHT22;44860;53.020;6.738;2022-07-29T15:44:28;25.70;42.60
59075;DHT22;44860;53.020;6.738;2022-07-29T15:46:54;25.70;42.90
59075;DHT22;44860;53.020;6.738;2022-07-29T15:49:32;25.70;42.90
59075;DHT22;44860;53.020;6.738;2022-07-29T15:51:59;25.80;42.20
59075;DHT22;44860;53.020;6.738;2022-07-29T15:54:26;25.80;41.40
59075;DHT22;44860;53.020;6.738;2022-07-29T15:56:53;25.80;41.80
59075;DHT22;44860;53.020;6.738;2022-07-29T15:59:19;25.80;39.60
59075;DHT22;44860;53.020;6.738;2022-07-29T16:01:45;25.90;38.80
59075;DHT22;44860;53.020;6.738;2022-07-29T16:04:10;25.90;39.20
59075;DHT22;44860;53.020;6.738;2022-07-29T16:06:36;25.90;40.00
59075;DHT22;44860;53.020;6.738;2022-07-29T16:09:02;25.90;40.50
59075;DHT22;44860;53.020;6.738;2022-07-29T16:11:28;26.00;39.30
59075;DHT22;44860;53.020;6.738;2022-07-29T16:13:53;26.00;39.10
59075;DHT22;44860;53.020;6.738;2022-07-29T16:16:22;26.00;38.10
59075;DHT22;44860;53.020;6.738;2022-07-29T16:18:50;26.10;37.60
59075;DHT22;44860;53.020;6.738;2022-07-29T16:21:15;26.10;37.40
59075;DHT22;44860;53.020;6.738;2022-07-29T16:23:41;26.00;36.50
59075;DHT22;44860;53.020;6.738;2022-07-29T16:26:07;26.00;37.30
59075;DHT22;44860;53.020;6.738;2022-07-29T16:28:32;26.10;36.70
59075;DHT22;44860;53.020;6.738;2022-07-29T16:30:58;26.10;35.80
59075;DHT22;44860;53.020;6.738;2022-07-29T16:33:24;26.10;35.00
59075;DHT22;44860;53.020;6.738;2022-07-29T16:35:50;26.10;35.50